Vineland, Colorado
Current Conditions -  °F | °C
As of 4:53 PM on Thursday 18 Dec 2014 (Local Time) from KPUB Reporting Station
Overcast Overcast  
Wind Chill: 34°   Ceiling: 9000
Heat Index: 39°   Visibility: 10mi
Dew Point: 29°   Wind: 7mph
Humidity: 67%   Direction: 110°ESE
Pressure: 30.04"   Gusts: NA
Location:  38.2482°N, 104.47°W
Report Text: KPUB 182353Z 11006KT 10SM OVC090 04/M02 A3004 RMK AO2 SLP195 T00391017 10078 20022 53014
Loading
Personal Weather Stations






























Interactive Weather Map New forecast layout! Learn more

10-Day Weather Forecast

Advertisements
Track Severe Weather on mobile